ADDS METAR Data INFO
IDs: Format: Raw Decoded Include TAF

Data at: 0344 UTC 19 Feb 2018

KM40 190335Z AUTO 15008KT 5SM BR OVC004 13/13 A3017 RMK AO2
KM40 190315Z AUTO 15005KT 4SM BR OVC003 13/13 A3017 RMK AO2
KM40 190255Z AUTO 15005KT 4SM BR OVC003 13/13 A3018 RMK AO2
KM40 190235Z AUTO 16004KT 3SM BR OVC003 13/13 A3019 RMK AO2
KM40 190215Z AUTO 15005KT 4SM BR OVC004 13/13 A3020 RMK AO2
KM40 190155Z AUTO 16007KT 3SM BR OVC004 13/13 A3020 RMK AO2
KM40 190135Z AUTO 15004KT 4SM BR OVC004 13/13 A3019 RMK AO2
KM40 190115Z AUTO 16008KT 8SM OVC004 13/13 A3019 RMK AO2
KM40 190055Z AUTO 18008KT 10SM OVC006 13/13 A3019 RMK AO2
KM40 190035Z AUTO 16008KT 10SM OVC006 13/13 A3019 RMK AO2
KM40 190015Z AUTO 17007KT 10SM OVC008 14/14 A3019 RMK AO2
KM40 182355Z AUTO 16005KT 10SM OVC010 14/14 A3019 RMK AO2
KM40 182335Z AUTO 16007KT 10SM OVC012 14/14 A3018 RMK AO2
KM40 182315Z AUTO 17006KT 10SM OVC014 14/14 A3018 RMK AO2
KM40 182255Z AUTO 17006KT 10SM OVC015 14/14 A3018 RMK AO2
KM40 182235Z AUTO 17006KT 10SM OVC015 14/14 A3018 RMK AO2
KM40 182215Z AUTO 17006KT 10SM OVC015 14/14 A3018 RMK AO2
KM40 182155Z AUTO 15007KT 10SM OVC016 14/14 A3017 RMK AO2
KM40 182135Z AUTO 18007KT 10SM OVC016 14/14 A3018 RMK AO2
KM40 182115Z AUTO 17008KT 10SM OVC017 15/15 A3018 RMK AO2
KM40 182055Z AUTO 16006KT 10SM OVC019 15/15 A3018 RMK AO2
KM40 182035Z AUTO 18007KT 10SM OVC020 15/15 A3019 RMK AO2
KM40 182015Z AUTO 14004G10KT 10SM OVC021 15/15 A3019 RMK AO2
KM40 181955Z AUTO 15006KT 10SM OVC021 15/15 A3019 RMK AO2
KM40 181935Z AUTO 16008KT 10SM OVC022 15/15 A3020 RMK AO2
KM40 181915Z AUTO 17008KT 10SM OVC023 15/15 A3021 RMK AO2
KM40 181855Z AUTO 18007KT 10SM BKN025 OVC032 15/15 A3022 RMK AO2
KM40 181835Z AUTO 17008KT 10SM FEW026 SCT033 BKN040 15/15 A3023 RMK AO2
KM40 181815Z AUTO 15007KT 10SM FEW060 FEW080 SCT090 15/15 A3023 RMK AO2
KM40 181755Z AUTO 11007KT 10SM BKN090 15/15 A3024 RMK AO2
KM40 181735Z AUTO 15007KT 10SM SCT100 16/16 A3026 RMK AO2
KM40 181715Z AUTO VRB06KT 10SM SCT100 16/16 A3026 RMK AO2
KM40 181655Z AUTO 13007KT 10SM SCT100 15/15 A3028 RMK AO2
KM40 181635Z AUTO 07005G10KT 10SM BKN110 14/14 A3028 RMK AO2
KM40 181615Z AUTO VRB05KT 10SM FEW110 14/14 A3029 RMK AO2
KM40 181555Z AUTO VRB06KT 10SM CLR 13/13 A3029 RMK AO2
KM40 181535Z AUTO 08008KT 10SM FEW110 12/12 A3029 RMK AO2
KM40 181515Z AUTO VRB05G11KT 10SM FEW110 12/12 A3030 RMK AO2
KM40 181455Z AUTO 07006G12KT 10SM CLR 11/11 A3029 RMK AO2
KM40 181435Z AUTO 06006KT 10SM CLR 10/10 A3030 RMK AO2
KM40 181415Z AUTO 04005KT 10SM CLR 09/09 A3030 RMK AO2
KM40 181355Z AUTO 02004KT 9SM CLR 08/08 A3030 RMK AO2
KM40 181335Z AUTO 02005KT 10SM CLR 07/07 A3030 RMK AO2
KM40 181315Z AUTO 00000KT 10SM CLR 06/06 A3029 RMK AO2
KM40 181255Z AUTO 00000KT 10SM CLR 05/05 A3029 RMK AO2
KM40 181235Z AUTO 00000KT 10SM CLR 05/05 A3029 RMK AO2
KM40 181215Z AUTO 00000KT 10SM BKN022 06/06 A3028 RMK AO2
KM40 181155Z AUTO 01003KT 10SM BKN022 07/07 A3028 RMK AO2
KM40 181135Z AUTO 00000KT 10SM CLR 07/07 A3028 RMK AO2
KM40 181115Z AUTO 02003KT 10SM FEW022 FEW028 07/07 A3027 RMK AO2
KM40 181055Z AUTO 02004KT 10SM BKN021 BKN028 07/08 A3027 RMK AO2
KM40 181035Z AUTO 02003KT 10SM OVC021 08/08 A3026 RMK AO2
KM40 181015Z AUTO 02005KT 10SM OVC021 08/08 A3026 RMK AO2
KM40 180955Z AUTO 02005KT 10SM OVC022 09/09 A3026 RMK AO2
KM40 180935Z AUTO 03004KT 10SM OVC021 09/09 A3026 RMK AO2
KM40 180915Z AUTO 03004KT 10SM OVC022 09/09 A3025 RMK AO2
KM40 180855Z AUTO 02006KT 10SM OVC022 09/09 A3025 RMK AO2
KM40 180835Z AUTO 01006KT 10SM OVC021 09/09 A3025 RMK AO2
KM40 180815Z AUTO 03005KT 10SM BKN017 OVC021 09/09 A3026 RMK AO2
KM40 180755Z AUTO 04004KT 10SM OVC018 09/09 A3026 RMK AO2
KM40 180735Z AUTO 01006KT 10SM OVC019 09/09 A3026 RMK AO2
KM40 180715Z AUTO 01005KT 10SM OVC018 09/09 A3026 RMK AO2
KM40 180655Z AUTO 02006KT 10SM OVC019 09/09 A3025 RMK AO2
KM40 180635Z AUTO 02007KT 10SM BKN015 OVC019 09/09 A3025 RMK AO2
KM40 180615Z AUTO 01008KT 10SM OVC013 09/09 A3025 RMK AO2
KM40 180555Z AUTO 36007KT 10SM OVC012 09/09 A3025 RMK AO2
KM40 180535Z AUTO 36008KT 10SM OVC013 09/09 A3024 RMK AO2
KM40 180515Z AUTO 01007G15KT 10SM OVC013 09/09 A3025 RMK AO2
KM40 180455Z AUTO 01008G14KT 10SM OVC014 09/09 A3025 RMK AO2
KM40 180435Z AUTO 01007G13KT 330V030 10SM OVC015 09/09 A3025 RMK AO2
KM40 180415Z AUTO 35007KT 10SM OVC016 09/09 A3025 RMK AO2
KM40 180355Z AUTO 36005KT 10SM OVC016 10/10 A3025 RMK AO2
KM40 180335Z AUTO 34008KT 10SM OVC016 10/10 A3025 RMK AO2
KM40 180315Z AUTO 35007KT 10SM OVC016 10/10 A3024 RMK AO2
KM40 180255Z AUTO 34007KT 10SM OVC014 10/10 A3024 RMK AO2
KM40 180235Z AUTO 34007KT 10SM OVC012 10/10 A3023 RMK AO2
KM40 180215Z AUTO 35008KT 10SM FEW008 BKN013 OVC017 10/10 A3023 RMK AO2
KM40 180155Z AUTO 34013KT 10SM BKN009 OVC012 10/10 A3022 RMK AO2
KM40 180135Z AUTO 34009KT 10SM BKN010 OVC014 10/10 A3022 RMK AO2
KM40 180115Z AUTO 33007KT 5SM -RA BKN009 OVC014 10/10 A3022 RMK AO2
KM40 180055Z AUTO 32005KT 4SM -RA BKN009 OVC014 11/11 A3020 RMK AO2
KM40 180035Z AUTO 33005KT 4SM -RA SCT009 BKN014 OVC050 11/11 A3019 RMK AO2
KM40 180015Z AUTO 32005G13KT 4SM -RA SCT008 BKN011 OVC049 11/11 A3018 RMK AO2
KM40 172355Z AUTO 31005G10KT 3SM RA BKN009 OVC013 11/11 A3018 RMK AO2
KM40 172335Z AUTO 31007KT 3SM -RA FEW005 SCT008 OVC013 11/11 A3016 RMK AO2
KM40 172315Z AUTO 31006KT 1SM RA BKN006 OVC011 12/12 A3015 RMK AO2
KM40 172255Z AUTO 00000KT 4SM -RA BKN005 BKN009 OVC028 12/12 A3015 RMK AO2
KM40 172235Z AUTO 00000KT 2 1/2SM -RA BKN005 OVC008 12/12 A3014 RMK AO2
KM40 172215Z AUTO 00000KT 3SM -DZ OVC006 12/12 A3013 RMK AO2
KM40 172155Z AUTO 00000KT 2SM -DZ OVC007 11/12 A3013 RMK AO2
KM40 172135Z AUTO 00000KT 1 1/2SM -DZ SCT004 BKN009 OVC015 11/11 A3013 RMK AO2
KM40 172115Z AUTO 00000KT 10SM OVC017 12/12 A3013 RMK AO2
KM40 172055Z AUTO VRB03KT 10SM SCT009 OVC015 11/11 A3012 RMK AO2
KM40 172035Z AUTO 32009KT 6SM -DZ OVC008 12/12 A3012 RMK AO2
KM40 172015Z AUTO 32009G16KT 9SM -DZ BKN008 OVC013 13/13 A3013 RMK AO2
KM40 171955Z AUTO 31015G21KT 9SM FEW008 OVC013 17/17 A3010 RMK AO2
KM40 171935Z AUTO 25004KT 10SM OVC014 17/17 A3008 RMK AO2
KM40 171915Z AUTO 22006KT 10SM OVC013 17/17 A3008 RMK AO2
KM40 171855Z AUTO 22006KT 10SM OVC014 17/17 A3008 RMK AO2
KM40 171835Z AUTO 19007KT 9SM OVC013 16/16 A3008 RMK AO2
KM40 171815Z AUTO 19007KT 5SM BR OVC012 15/16 A3009 RMK AO2
KM40 171755Z AUTO 22006KT 4SM -DZ BKN010 OVC013 15/15 A3012 RMK AO2
KM40 171735Z AUTO 22010KT 9SM OVC008 15/15 A3012 RMK AO2
KM40 171715Z AUTO 22010KT 9SM OVC007 15/15 A3012 RMK AO2
KM40 171655Z AUTO 20009KT 8SM OVC006 14/14 A3011 RMK AO2
KM40 171635Z AUTO 19007KT 9SM OVC006 14/14 A3011 RMK AO2
KM40 171615Z AUTO 19007KT 8SM OVC006 13/13 A3011 RMK AO2
KM40 171555Z AUTO 20011KT 7SM OVC005 12/12 A3011 RMK AO2